Time;durP1;ratioP1;P1;durP2;ratioP2;P2;SDS_P1;SDS_P2;PMS_P1;PMS_P2;Temp;Humidity;BMP_temperature;BMP_pressure;BME280_temperature;BME280_humidity;BME280_pressure;Samples;Min_cycle;Max_cycle;Signal;HPM_P1;HPM_P2
2022/12/27 00:00:26;;;;;;;;;;;;;;;;;;2217561;66;1209;-71
2022/12/27 00:02:59;;;;;;;;;;;;;;;;;;2217669;59;1183;-71
2022/12/27 00:05:32;;;;;;;;;;;;;;;;;;2218225;66;1187;-72
2022/12/27 00:08:08;;;;;;;;;;;;;;;;;;2219205;66;1269;-72
2022/12/27 00:10:42;;;;;;;;;;;;;;;;;;2218638;58;1572;-71
2022/12/27 00:13:15;;;;;;;;;;;;;;;;;;2217559;66;1924;-71
2022/12/27 00:15:48;;;;;;;;;;;;;;;;;;2217713;66;1183;-71
2022/12/27 00:18:21;;;;;;;;;;;;;;;;;;2218180;66;1170;-71
2022/12/27 00:20:58;;;;;;;;;;;;;;;;;;2218266;58;1212;-71
2022/12/27 00:23:35;;;;;;;;;;;;;;;;;;2217590;66;1714;-72
2022/12/27 00:26:09;;;;;;;;;;;;;;;;;;2218008;59;1013;-71
2022/12/27 00:28:43;;;;;;;;;;;;;;;;;;2217589;66;1291;-71
2022/12/27 00:31:16;;;;;;;;;;;;;;;;;;2217728;66;1075;-71
2022/12/27 00:33:50;;;;;;;;;;;;;;;;;;2219194;59;1943;-72
2022/12/27 00:36:24;;;;;;;;;;;;;;;;;;2212389;66;2119;-71
2022/12/27 00:39:01;;;;;;;;;;;;;;;;;;2217567;58;1650;-72
2022/12/27 00:41:34;;;;;;;;;;;;;;;;;;2218188;59;1053;-71
2022/12/27 00:44:07;;;;;;;;;;;;;;;;;;2218058;58;1183;-72
2022/12/27 00:46:40;;;;;;;;;;;;;;;;;;2217800;58;1597;-71
2022/12/27 00:49:13;;;;;;;;;;;;;;;;;;2217567;58;1237;-72
2022/12/27 00:51:47;;;;;;;;;;;;;;;;;;2218427;66;1159;-71
2022/12/27 00:54:22;;;;;;;;;;;;;;;;;;2215149;66;1933;-71
2022/12/27 00:56:55;;;;;;;;;;;;;;;;;;2215087;59;1394;-72
2022/12/27 00:59:29;;;;;;;;;;;;;;;;;;2218937;66;1257;-72
2022/12/27 01:02:02;;;;;;;;;;;;;;;;;;2219250;59;1179;-71
2022/12/27 01:04:35;;;;;;;;;;;;;;;;;;2213825;66;1165;-72
2022/12/27 01:07:08;;;;;;;;;;;;;;;;;;2217955;66;1152;-72
2022/12/27 01:09:44;;;;;;;;;;;;;;;;;;2218690;59;1510;-72
2022/12/27 01:12:17;;;;;;;;;;;;;;;;;;2218151;66;1200;-72
2022/12/27 01:14:50;;;;;;;;;;;;;;;;;;2217924;59;1935;-71
2022/12/27 01:17:24;;;;;;;;;;;;;;;;;;2217871;66;1195;-71
2022/12/27 01:19:57;;;;;;;;;;;;;;;;;;2217391;66;1243;-71
2022/12/27 01:22:30;;;;;;;;;;;;;;;;;;2217349;58;1590;-71
2022/12/27 01:25:06;;;;;;;;;;;;;;;;;;2214796;66;1222;-71
2022/12/27 01:27:40;;;;;;;;;;;;;;;;;;2217143;66;1075;-71
2022/12/27 01:30:13;;;;;;;;;;;;;;;;;;2216690;66;1304;-71
2022/12/27 01:32:46;;;;;;;;;;;;;;;;;;2217515;58;1761;-71
2022/12/27 01:35:20;;;;;;;;;;;;;;;;;;2217784;58;1941;-71
2022/12/27 01:37:53;;;;;;;;;;;;;;;;;;2218407;59;1590;-71
2022/12/27 01:40:29;;;;;;;;;;;;;;;;;;2217010;66;1299;-71
2022/12/27 01:42:59;;;;;;;;;;;;;;;;;;2217524;59;1174;-71
2022/12/27 01:45:34;;;;;;;;;;;;;;;;;;2217189;59;1379;-71
2022/12/27 01:48:09;;;;;;;;;;;;;;;;;;2214685;66;1255;-71
2022/12/27 01:50:44;;;;;;;;;;;;;;;;;;2213382;59;1518;-71
2022/12/27 01:53:19;;;;;;;;;;;;;;;;;;2217821;59;1154;-71
2022/12/27 01:55:57;;;;;;;;;;;;;;;;;;2217193;58;1937;-72
2022/12/27 01:58:34;;;;;;;;;;;;;;;;;;2217661;59;1153;-71
2022/12/27 02:01:09;;;;;;;;;;;;;;;;;;2216337;59;1280;-71
2022/12/27 02:03:44;;;;;;;;;;;;;;;;;;2218818;66;1052;-71
2022/12/27 02:06:17;;;;;;;;;;;;;;;;;;2218081;58;2297;-71
2022/12/27 02:08:56;;;;;;;;;;;;;;;;;;2217800;66;1270;-71
2022/12/27 02:14:22;;;;;;;;;;;;;;;;;;2217265;66;1920;-71
2022/12/27 02:16:55;;;;;;;;;;;;;;;;;;2217775;66;1153;-71
2022/12/27 02:19:35;;;;;;;;;;;;;;;;;;2217778;66;1271;-71
2022/12/27 02:22:21;;;;;;;;;;;;;;;;;;2216746;58;1673;-71
2022/12/27 02:25:03;;;;;;;;;;;;;;;;;;2216294;66;1156;-71
2022/12/27 02:27:57;;;;;;;;;;;;;;;;;;2217159;66;1176;-71
2022/12/27 02:30:35;;;;;;;;;;;;;;;;;;2217891;66;1262;-71
2022/12/27 02:33:12;;;;;;;;;;;;;;;;;;2214106;59;1618;-72
2022/12/27 02:35:47;;;;;;;;;;;;;;;;;;2217889;66;1947;-71
2022/12/27 02:38:23;;;;;;;;;;;;;;;;;;2216839;59;1635;-72
2022/12/27 02:55:17;;;;;;;;;;;;;;;;;;2218238;66;1921;-71
2022/12/27 02:57:52;;;;;;;;;;;;;;;;;;2218805;59;1449;-71
2022/12/27 03:03:27;;;;;;;;;;;;;;;;;;2217342;59;1495;-72
2022/12/27 03:06:42;;;;;;;;;;;;;;;;;;2219076;59;2245;-71
2022/12/27 03:18:17;;;;;;;;;;;;;;;;;;2217543;66;1113;-71
2022/12/27 03:26:34;;;;;;;;;;;;;;;;;;2218477;66;1167;-71
2022/12/27 03:34:52;;;;;;;;;;;;;;;;;;2217275;58;2177;-71
2022/12/27 03:40:22;;;;;;;;;;;;;;;;;;2217809;59;1249;-72
2022/12/27 03:43:10;;;;;;;;;;;;;;;;;;2215196;66;1146;-71
2022/12/27 03:48:43;;;;;;;;;;;;;;;;;;2218249;58;1257;-71
2022/12/27 03:51:20;;;;;;;;;;;;;;;;;;2219055;66;1083;-71
2022/12/27 03:53:59;;;;;;;;;;;;;;;;;;2218978;66;1273;-71
2022/12/27 03:56:32;;;;;;;;;;;;;;;;;;2219639;59;1397;-71
2022/12/27 03:59:06;;;;;;;;;;;;;;;;;;2214723;66;1413;-71
2022/12/27 04:01:41;;;;;;;;;;;;;;;;;;2219542;66;1293;-71
2022/12/27 04:04:14;;;;;;;;;;;;;;;;;;2218831;66;1145;-71
2022/12/27 04:06:47;;;;;;;;;;;;;;;;;;2215301;66;2312;-71
2022/12/27 04:34:59;;;;;;;;;;;;;;;;;;2219042;66;1996;-71
2022/12/27 04:37:32;;;;;;;;;;;;;;;;;;2218274;59;1363;-72
2022/12/27 05:02:26;;;;;;;;;;;;;;;;;;2219652;58;1722;-73
2022/12/27 05:04:59;;;;;;;;;;;;;;;;;;2221115;66;1115;-71
2022/12/27 05:16:29;;;;;;;;;;;;;;;;;;2214171;58;1934;-71
2022/12/27 05:19:03;;;;;;;;;;;;;;;;;;2217464;59;1668;-71
2022/12/27 05:21:36;;;;;;;;;;;;;;;;;;2216668;58;1716;-71
2022/12/27 05:27:00;;;;;;;;;;;;;;;;;;2216734;59;1831;-71
2022/12/27 05:29:37;;;;;;;;;;;;;;;;;;2217749;66;1244;-71
2022/12/27 05:32:20;;;;;;;;;;;;;;;;;;2216642;66;1211;-71
2022/12/27 05:34:53;;;;;;;;;;;;;;;;;;2216733;59;1949;-71
2022/12/27 05:37:27;;;;;;;;;;;;;;;;;;2216046;58;1374;-71
2022/12/27 05:40:01;;;;;;;;;;;;;;;;;;2216853;58;1738;-71
2022/12/27 05:42:34;;;;;;;;;;;;;;;;;;2217082;66;1028;-71
2022/12/27 05:45:08;;;;;;;;;;;;;;;;;;2217091;58;1764;-72
2022/12/27 05:47:44;;;;;;;;;;;;;;;;;;2217420;66;1042;-71
2022/12/27 05:50:18;;;;;;;;;;;;;;;;;;2213896;58;1580;-71
2022/12/27 05:52:51;;;;;;;;;;;;;;;;;;2216244;59;1935;-71
2022/12/27 05:55:24;;;;;;;;;;;;;;;;;;2218028;66;1982;-71
2022/12/27 05:57:58;;;;;;;;;;;;;;;;;;2216029;59;1342;-71
2022/12/27 06:00:39;;;;;;;;;;;;;;;;;;2215821;59;1357;-72
2022/12/27 06:03:16;;;;;;;;;;;;;;;;;;2215528;59;1714;-71
2022/12/27 06:05:50;;;;;;;;;;;;;;;;;;2216422;59;2260;-71
2022/12/27 06:08:24;;;;;;;;;;;;;;;;;;2217420;59;1751;-71
2022/12/27 06:11:03;;;;;;;;;;;;;;;;;;2217538;66;1256;-71
2022/12/27 06:13:37;;;;;;;;;;;;;;;;;;2216627;59;1781;-71
2022/12/27 06:16:12;;;;;;;;;;;;;;;;;;2212071;58;2028;-70
2022/12/27 06:18:48;;;;;;;;;;;;;;;;;;2213111;59;11989;-71
2022/12/27 06:21:22;;;;;;;;;;;;;;;;;;2212679;59;15455;-71
2022/12/27 06:23:57;;;;;;;;;;;;;;;;;;2213636;58;14688;-71
2022/12/27 06:26:31;;;;;;;;;;;;;;;;;;2211571;58;12048;-70
2022/12/27 06:29:22;;;;;;;;;;;;;;;;;;2212652;58;17733;-71
2022/12/27 06:31:55;;;;;;;;;;;;;;;;;;2211581;59;12832;-71
2022/12/27 06:34:31;;;;;;;;;;;;;;;;;;2213151;58;12572;-71
2022/12/27 06:37:04;;;;;;;;;;;;;;;;;;2213417;58;12340;-71
2022/12/27 06:39:38;;;;;;;;;;;;;;;;;;2214489;58;13709;-72
2022/12/27 06:42:11;;;;;;;;;;;;;;;;;;2214519;58;19032;-71
2022/12/27 06:44:44;;;;;;;;;;;;;;;;;;2214230;59;12640;-71
2022/12/27 06:47:17;;;;;;;;;;;;;;;;;;2214121;58;12445;-71
2022/12/27 06:49:54;;;;;;;;;;;;;;;;;;2212572;58;13315;-71
2022/12/27 06:52:27;;;;;;;;;;;;;;;;;;2214588;58;11653;-71
2022/12/27 06:55:00;;;;;;;;;;;;;;;;;;2210291;59;13566;-71
2022/12/27 06:57:33;;;;;;;;;;;;;;;;;;2213232;59;19755;-71
2022/12/27 07:00:07;;;;;;;;;;;;;;;;;;2213330;58;17975;-71
2022/12/27 07:02:40;;;;;;;;;;;;;;;;;;2215328;59;12559;-71
2022/12/27 07:05:16;;;;;;;;;;;;;;;;;;2213510;59;12735;-71
2022/12/27 07:07:52;;;;;;;;;;;;;;;;;;2214616;58;12961;-72
2022/12/27 07:10:25;;;;;;;;;;;;;;;;;;2212982;59;15226;-71
2022/12/27 07:12:58;;;;;;;;;;;;;;;;;;2215020;59;13254;-71
2022/12/27 07:15:31;;;;;;;;;;;;;;;;;;2213468;59;12767;-71
2022/12/27 07:18:04;;;;;;;;;;;;;;;;;;2214695;59;11934;-71
2022/12/27 07:20:40;;;;;;;;;;;;;;;;;;2214751;59;11504;-71
2022/12/27 07:23:14;;;;;;;;;;;;;;;;;;2213336;58;18353;-72
2022/12/27 07:25:47;;;;;;;;;;;;;;;;;;2213653;58;11997;-71
2022/12/27 07:28:20;;;;;;;;;;;;;;;;;;2213464;58;15028;-71
2022/12/27 07:30:53;;;;;;;;;;;;;;;;;;2213763;58;12834;-71
2022/12/27 07:33:26;;;;;;;;;;;;;;;;;;2212401;59;13459;-72
2022/12/27 07:36:03;;;;;;;;;;;;;;;;;;2213423;59;13061;-71
2022/12/27 07:38:36;;;;;;;;;;;;;;;;;;2214024;59;12381;-71
2022/12/27 07:41:09;;;;;;;;;;;;;;;;;;2213466;59;12805;-71
2022/12/27 07:43:43;;;;;;;;;;;;;;;;;;2213969;59;20121;-71
2022/12/27 07:46:17;;;;;;;;;;;;;;;;;;2213155;59;12382;-71
2022/12/27 07:48:50;;;;;;;;;;;;;;;;;;2213587;59;12541;-71
2022/12/27 07:51:26;;;;;;;;;;;;;;;;;;2212754;59;13995;-71
2022/12/27 07:53:59;;;;;;;;;;;;;;;;;;2213181;59;20317;-71
2022/12/27 07:56:32;;;;;;;;;;;;;;;;;;2212803;59;13861;-71
2022/12/27 07:59:05;;;;;;;;;;;;;;;;;;2212899;59;12505;-71
2022/12/27 08:04:30;;;;;;;;;;;;;;;;;;2212086;59;14167;-71
2022/12/27 08:07:09;;;;;;;;;;;;;;;;;;2213417;59;12576;-71
2022/12/27 08:09:43;;;;;;;;;;;;;;;;;;2214480;59;12651;-71
2022/12/27 08:12:17;;;;;;;;;;;;;;;;;;2213500;59;14387;-71
2022/12/27 08:14:50;;;;;;;;;;;;;;;;;;2213636;59;18932;-71
2022/12/27 08:17:25;;;;;;;;;;;;;;;;;;2214060;59;12938;-71
2022/12/27 08:19:59;;;;;;;;;;;;;;;;;;2214239;59;12699;-71
2022/12/27 08:22:34;;;;;;;;;;;;;;;;;;2213679;58;12466;-71
2022/12/27 08:25:08;;;;;;;;;;;;;;;;;;2212130;59;17261;-70
2022/12/27 08:27:41;;;;;;;;;;;;;;;;;;2212782;59;18122;-71
2022/12/27 08:30:15;;;;;;;;;;;;;;;;;;2212185;59;17735;-71
2022/12/27 08:32:49;;;;;;;;;;;;;;;;;;2213547;59;16580;-71
2022/12/27 08:35:22;;;;;;;;;;;;;;;;;;2212939;59;20097;-71
2022/12/27 08:37:58;;;;;;;;;;;;;;;;;;2212320;58;12430;-72
2022/12/27 08:40:31;;;;;;;;;;;;;;;;;;2209920;59;12627;-71
2022/12/27 08:43:04;;;;;;;;;;;;;;;;;;2214519;58;13164;-71
2022/12/27 08:45:38;;;;;;;;;;;;;;;;;;2213746;59;17076;-71
2022/12/27 08:48:11;;;;;;;;;;;;;;;;;;2213090;58;12084;-71
2022/12/27 08:50:44;;;;;;;;;;;;;;;;;;2210442;59;12959;-71
2022/12/27 08:53:20;;;;;;;;;;;;;;;;;;2213279;58;12170;-71
2022/12/27 08:55:53;;;;;;;;;;;;;;;;;;2214618;59;12453;-71
2022/12/27 08:58:26;;;;;;;;;;;;;;;;;;2213245;59;11783;-71
2022/12/27 09:01:05;;;;;;;;;;;;;;;;;;2213987;58;14946;-71
2022/12/27 09:03:38;;;;;;;;;;;;;;;;;;2213882;59;12905;-71
2022/12/27 09:06:14;;;;;;;;;;;;;;;;;;2213646;59;13595;-72
2022/12/27 09:08:50;;;;;;;;;;;;;;;;;;2214598;59;15041;-71
2022/12/27 09:11:25;;;;;;;;;;;;;;;;;;2212739;59;17227;-71
2022/12/27 09:13:59;;;;;;;;;;;;;;;;;;2213565;59;18210;-71
2022/12/27 09:16:33;;;;;;;;;;;;;;;;;;2211606;59;13934;-71
2022/12/27 09:19:06;;;;;;;;;;;;;;;;;;2213011;59;13829;-72
2022/12/27 09:21:41;;;;;;;;;;;;;;;;;;2213682;58;12431;-71
2022/12/27 09:24:17;;;;;;;;;;;;;;;;;;2212624;59;13583;-72
2022/12/27 09:26:50;;;;;;;;;;;;;;;;;;2213344;59;16597;-72
2022/12/27 09:29:23;;;;;;;;;;;;;;;;;;2211595;59;18429;-71
2022/12/27 09:31:56;;;;;;;;;;;;;;;;;;2212475;58;13876;-71
2022/12/27 09:34:29;;;;;;;;;;;;;;;;;;2211894;59;13475;-71
2022/12/27 09:37:02;;;;;;;;;;;;;;;;;;2208050;59;12934;-71
2022/12/27 09:39:38;;;;;;;;;;;;;;;;;;2210603;58;12466;-71
2022/12/27 09:42:19;;;;;;;;;;;;;;;;;;2210868;59;17864;-72
2022/12/27 09:44:54;;;;;;;;;;;;;;;;;;2211929;59;14823;-71
2022/12/27 09:47:29;;;;;;;;;;;;;;;;;;2212075;59;15123;-72
2022/12/27 09:50:04;;;;;;;;;;;;;;;;;;2212672;59;13591;-71
2022/12/27 09:52:39;;;;;;;;;;;;;;;;;;2213216;59;12652;-71
2022/12/27 09:55:18;;;;;;;;;;;;;;;;;;2212821;64;13833;-71
2022/12/27 09:57:52;;;;;;;;;;;;;;;;;;2213617;59;13000;-72
2022/12/27 10:00:25;;;;;;;;;;;;;;;;;;2211838;59;16039;-72
2022/12/27 10:02:59;;;;;;;;;;;;;;;;;;2212431;58;18417;-72
2022/12/27 10:05:34;;;;;;;;;;;;;;;;;;2212093;59;12716;-72
2022/12/27 10:08:14;;;;;;;;;;;;;;;;;;2211702;58;18700;-72
2022/12/27 10:10:55;;;;;;;;;;;;;;;;;;2213543;66;12693;-71
2022/12/27 10:13:33;;;;;;;;;;;;;;;;;;2212960;59;17693;-72
2022/12/27 10:16:12;;;;;;;;;;;;;;;;;;2211878;59;18740;-72
2022/12/27 10:18:50;;;;;;;;;;;;;;;;;;2213692;66;15445;-72
2022/12/27 10:21:24;;;;;;;;;;;;;;;;;;2212729;59;13646;-72
2022/12/27 10:23:59;;;;;;;;;;;;;;;;;;2213192;58;12351;-71
2022/12/27 10:26:35;;;;;;;;;;;;;;;;;;2212001;59;13691;-71
2022/12/27 10:29:15;;;;;;;;;;;;;;;;;;2211129;59;15846;-71
2022/12/27 10:31:48;;;;;;;;;;;;;;;;;;2212790;58;14132;-72
2022/12/27 10:34:23;;;;;;;;;;;;;;;;;;2211534;58;13724;-72
2022/12/27 10:36:56;;;;;;;;;;;;;;;;;;2211403;59;30573;-71
2022/12/27 10:39:31;;;;;;;;;;;;;;;;;;2212392;59;30359;-72
2022/12/27 10:42:10;;;;;;;;;;;;;;;;;;2212755;59;15475;-71
2022/12/27 10:44:43;;;;;;;;;;;;;;;;;;2212067;59;11674;-72
2022/12/27 10:47:17;;;;;;;;;;;;;;;;;;2212304;59;15122;-71
2022/12/27 10:50:04;;;;;;;;;;;;;;;;;;2212995;64;13327;-71
2022/12/27 10:52:37;;;;;;;;;;;;;;;;;;2212770;59;21848;-72
2022/12/27 10:55:31;;;;;;;;;;;;;;;;;;2212271;59;12578;-71
2022/12/27 10:58:38;;;;;;;;;;;;;;;;;;2212821;59;12257;-72
2022/12/27 11:11:52;;;;;;;;;;;;;;;;;;2241899;53;11709;-72
2022/12/27 11:14:27;;;;;;;;;;;;;;;;;;2213437;58;12853;-71
2022/12/27 11:17:00;;;;;;;;;;;;;;;;;;2214715;66;19411;-71
2022/12/27 11:19:34;;;;;;;;;;;;;;;;;;2214694;58;13413;-72
2022/12/27 11:22:08;;;;;;;;;;;;;;;;;;2215679;58;23415;-72
2022/12/27 11:24:46;;;;;;;;;;;;;;;;;;2213593;58;22112;-71
2022/12/27 11:27:22;;;;;;;;;;;;;;;;;;2214955;58;12975;-71
2022/12/27 11:29:59;;;;;;;;;;;;;;;;;;2213949;58;13687;-71
2022/12/27 11:32:33;;;;;;;;;;;;;;;;;;2211259;58;13007;-71
2022/12/27 11:35:06;;;;;;;;;;;;;;;;;;2215559;59;12685;-71
2022/12/27 11:37:41;;;;;;;;;;;;;;;;;;2215353;58;15446;-72
2022/12/27 11:40:21;;;;;;;;;;;;;;;;;;2212138;59;13637;-71
2022/12/27 11:42:58;;;;;;;;;;;;;;;;;;2215229;59;14583;-72
2022/12/27 11:45:36;;;;;;;;;;;;;;;;;;2215354;59;21200;-72
2022/12/27 11:48:19;;;;;;;;;;;;;;;;;;2215921;58;14020;-71
2022/12/27 11:51:01;;;;;;;;;;;;;;;;;;2215440;58;12411;-72
2022/12/27 11:53:56;;;;;;;;;;;;;;;;;;2215276;58;12798;-71
2022/12/27 11:56:31;;;;;;;;;;;;;;;;;;2214515;58;19917;-71
2022/12/27 11:59:22;;;;;;;;;;;;;;;;;;2216219;66;14129;-71
2022/12/27 12:02:18;;;;;;;;;;;;;;;;;;2215038;58;19728;-71
2022/12/27 12:05:01;;;;;;;;;;;;;;;;;;2216077;63;15405;-72
2022/12/27 12:07:46;;;;;;;;;;;;;;;;;;2216913;58;24518;-71
2022/12/27 12:10:24;;;;;;;;;;;;;;;;;;2217199;58;14014;-71
2022/12/27 12:13:09;;;;;;;;;;;;;;;;;;2212282;58;2456;-71
2022/12/27 12:15:50;;;;;;;;;;;;;;;;;;2215593;58;12506;-72
2022/12/27 12:18:41;;;;;;;;;;;;;;;;;;2217784;58;12137;-71
2022/12/27 12:21:28;;;;;;;;;;;;;;;;;;2213176;58;12727;-71
2022/12/27 12:24:07;;;;;;;;;;;;;;;;;;2216403;58;12022;-72
2022/12/27 12:26:49;;;;;;;;;;;;;;;;;;2215349;58;19594;-71
2022/12/27 12:29:27;;;;;;;;;;;;;;;;;;2213424;59;12005;-71
2022/12/27 12:32:15;;;;;;;;;;;;;;;;;;2213039;58;14298;-71
2022/12/27 12:34:56;;;;;;;;;;;;;;;;;;2215635;58;12762;-71
2022/12/27 12:37:48;;;;;;;;;;;;;;;;;;2215112;58;12707;-71
2022/12/27 12:40:32;;;;;;;;;;;;;;;;;;2215190;58;13703;-72
2022/12/27 12:43:13;;;;;;;;;;;;;;;;;;2214050;59;15987;-71
2022/12/27 12:45:54;;;;;;;;;;;;;;;;;;2214985;58;12896;-72
2022/12/27 12:48:40;;;;;;;;;;;;;;;;;;2216730;58;12983;-71
2022/12/27 12:51:32;;;;;;;;;;;;;;;;;;2215983;63;15874;-71
2022/12/27 12:54:13;;;;;;;;;;;;;;;;;;2214602;58;13069;-71
2022/12/27 12:57:08;;;;;;;;;;;;;;;;;;2215762;58;14118;-71
2022/12/27 12:59:56;;;;;;;;;;;;;;;;;;2215235;58;13864;-72
2022/12/27 13:02:39;;;;;;;;;;;;;;;;;;2215557;59;12608;-71
2022/12/27 13:05:16;;;;;;;;;;;;;;;;;;2213624;58;20289;-72
2022/12/27 13:08:03;;;;;;;;;;;;;;;;;;2214732;58;12738;-72
2022/12/27 13:10:47;;;;;;;;;;;;;;;;;;2210561;58;13117;-71
2022/12/27 13:13:25;;;;;;;;;;;;;;;;;;2214189;66;22499;-71
2022/12/27 13:16:05;;;;;;;;;;;;;;;;;;2213944;58;13415;-71
2022/12/27 13:18:43;;;;;;;;;;;;;;;;;;2215830;63;12798;-71
2022/12/27 13:21:21;;;;;;;;;;;;;;;;;;2215623;58;13709;-71
2022/12/27 13:24:01;;;;;;;;;;;;;;;;;;2215562;59;13550;-72
2022/12/27 13:26:40;;;;;;;;;;;;;;;;;;2211935;59;13445;-71
2022/12/27 13:29:33;;;;;;;;;;;;;;;;;;2214463;58;17362;-71
2022/12/27 13:32:11;;;;;;;;;;;;;;;;;;2214149;63;13074;-71
2022/12/27 13:34:50;;;;;;;;;;;;;;;;;;2213614;58;13969;-72
2022/12/27 13:37:30;;;;;;;;;;;;;;;;;;2213922;58;12178;-71
2022/12/27 13:40:15;;;;;;;;;;;;;;;;;;2214270;58;12855;-71
2022/12/27 13:43:07;;;;;;;;;;;;;;;;;;2212571;59;15461;-72
2022/12/27 13:45:58;;;;;;;;;;;;;;;;;;2213701;58;14799;-71
2022/12/27 13:48:45;;;;;;;;;;;;;;;;;;2214837;58;13112;-71
2022/12/27 13:51:23;;;;;;;;;;;;;;;;;;2214973;58;13649;-72
2022/12/27 13:54:14;;;;;;;;;;;;;;;;;;2214875;58;12532;-71
2022/12/27 13:56:53;;;;;;;;;;;;;;;;;;2212090;58;14910;-72
2022/12/27 13:59:44;;;;;;;;;;;;;;;;;;2215484;58;15305;-71
2022/12/27 14:02:35;;;;;;;;;;;;;;;;;;2210536;59;14170;-71
2022/12/27 14:05:26;;;;;;;;;;;;;;;;;;2210010;58;13430;-71
2022/12/27 14:08:05;;;;;;;;;;;;;;;;;;2215186;58;12860;-72
2022/12/27 14:10:43;;;;;;;;;;;;;;;;;;2215383;58;15013;-71
2022/12/27 14:13:19;;;;;;;;;;;;;;;;;;2214795;58;13285;-71
2022/12/27 14:16:11;;;;;;;;;;;;;;;;;;2212971;58;13018;-71
2022/12/27 14:19:03;;;;;;;;;;;;;;;;;;2214376;58;12654;-71
2022/12/27 14:21:44;;;;;;;;;;;;;;;;;;2213847;58;13474;-71
2022/12/27 14:24:29;;;;;;;;;;;;;;;;;;2215183;58;13133;-71
2022/12/27 14:27:23;;;;;;;;;;;;;;;;;;2207671;58;16225;-71
2022/12/27 14:30:29;;;;;;;;;;;;;;;;;;2210475;58;19412;-71
2022/12/27 14:33:11;;;;;;;;;;;;;;;;;;2200376;59;11730;-71
2022/12/27 14:36:00;;;;;;;;;;;;;;;;;;2203330;59;12414;-71
2022/12/27 14:38:51;;;;;;;;;;;;;;;;;;2211250;58;12695;-71
2022/12/27 14:41:42;;;;;;;;;;;;;;;;;;2211211;58;13700;-71
2022/12/27 14:44:45;;;;;;;;;;;;;;;;;;2209498;58;18649;-71
2022/12/27 14:47:40;;;;;;;;;;;;;;;;;;2203101;64;13642;-71
2022/12/27 14:50:27;;;;;;;;;;;;;;;;;;2213272;58;12362;-71
2022/12/27 14:53:20;;;;;;;;;;;;;;;;;;2215456;58;12730;-72
2022/12/27 14:55:58;;;;;;;;;;;;;;;;;;2215068;58;12615;-72
2022/12/27 14:58:37;;;;;;;;;;;;;;;;;;2213502;58;13965;-71
2022/12/27 15:01:13;;;;;;;;;;;;;;;;;;2215749;58;14014;-71
2022/12/27 15:04:11;;;;;;;;;;;;;;;;;;2211499;58;12341;-71
2022/12/27 15:07:05;;;;;;;;;;;;;;;;;;2203541;59;22815;-71
2022/12/27 15:09:47;;;;;;;;;;;;;;;;;;2213559;58;12971;-71
2022/12/27 15:12:25;;;;;;;;;;;;;;;;;;2214770;58;12135;-71
2022/12/27 15:15:04;;;;;;;;;;;;;;;;;;2214455;58;18208;-71
2022/12/27 15:17:45;;;;;;;;;;;;;;;;;;2214812;58;12495;-71
2022/12/27 15:20:28;;;;;;;;;;;;;;;;;;2215874;58;13722;-71
2022/12/27 15:23:08;;;;;;;;;;;;;;;;;;2213283;58;13119;-71
2022/12/27 15:25:51;;;;;;;;;;;;;;;;;;2213921;58;12770;-71
2022/12/27 15:28:30;;;;;;;;;;;;;;;;;;2216013;59;13370;-71
2022/12/27 15:31:06;;;;;;;;;;;;;;;;;;2215026;58;18352;-71
2022/12/27 15:33:46;;;;;;;;;;;;;;;;;;2214062;59;12458;-71
2022/12/27 15:36:20;;;;;;;;;;;;;;;;;;2201969;58;12025;-71
2022/12/27 15:38:54;;;;;;;;;;;;;;;;;;2210420;59;12786;-71
2022/12/27 15:41:49;;;;;;;;;;;;;;;;;;2212817;58;12911;-71
2022/12/27 15:44:37;;;;;;;;;;;;;;;;;;2207356;58;16902;-71
2022/12/27 15:47:23;;;;;;;;;;;;;;;;;;2216612;58;11844;-71
2022/12/27 15:50:11;;;;;;;;;;;;;;;;;;2212274;59;16179;-71
2022/12/27 15:52:56;;;;;;;;;;;;;;;;;;2215395;58;12179;-71
2022/12/27 15:55:38;;;;;;;;;;;;;;;;;;2215349;58;13845;-71
2022/12/27 15:58:18;;;;;;;;;;;;;;;;;;2214400;58;15091;-71
2022/12/27 16:01:06;;;;;;;;;;;;;;;;;;2212681;58;13212;-71
2022/12/27 16:03:40;;;;;;;;;;;;;;;;;;2213632;58;23813;-71
2022/12/27 16:06:45;;;;;;;;;;;;;;;;;;2215594;58;12840;-71
2022/12/27 16:09:24;;;;;;;;;;;;;;;;;;2215037;58;16068;-72
2022/12/27 16:12:03;;;;;;;;;;;;;;;;;;2215100;58;12509;-71
2022/12/27 16:14:40;;;;;;;;;;;;;;;;;;2214753;58;17656;-71
2022/12/27 16:17:26;;;;;;;;;;;;;;;;;;2215765;58;14483;-71
2022/12/27 16:20:05;;;;;;;;;;;;;;;;;;2215264;66;13380;-71
2022/12/27 16:22:39;;;;;;;;;;;;;;;;;;2215206;58;13112;-71
2022/12/27 16:25:22;;;;;;;;;;;;;;;;;;2215317;66;12575;-72
2022/12/27 16:27:58;;;;;;;;;;;;;;;;;;2214927;58;12650;-71
2022/12/27 16:30:40;;;;;;;;;;;;;;;;;;2214576;58;13848;-71
2022/12/27 16:33:37;;;;;;;;;;;;;;;;;;2216391;59;13328;-71
2022/12/27 16:36:31;;;;;;;;;;;;;;;;;;2210861;58;12788;-71
2022/12/27 16:39:18;;;;;;;;;;;;;;;;;;2211806;59;14030;-71
2022/12/27 16:42:01;;;;;;;;;;;;;;;;;;2211380;58;12712;-71
2022/12/27 16:44:48;;;;;;;;;;;;;;;;;;2211987;58;19417;-71
2022/12/27 16:47:36;;;;;;;;;;;;;;;;;;2213166;58;19888;-72
2022/12/27 16:50:21;;;;;;;;;;;;;;;;;;2214097;58;13166;-71
2022/12/27 16:53:00;;;;;;;;;;;;;;;;;;2213146;58;13279;-71
2022/12/27 16:55:48;;;;;;;;;;;;;;;;;;2210267;63;13882;-71
2022/12/27 16:58:33;;;;;;;;;;;;;;;;;;2213205;58;12825;-71
2022/12/27 17:01:07;;;;;;;;;;;;;;;;;;2213452;58;16470;-71
2022/12/27 17:03:47;;;;;;;;;;;;;;;;;;2212452;58;12291;-71
2022/12/27 17:06:39;;;;;;;;;;;;;;;;;;2212697;58;12546;-71
2022/12/27 17:09:31;;;;;;;;;;;;;;;;;;2214555;58;12193;-71
2022/12/27 17:22:47;;;;;;;;;;;;;;;;;;2199318;59;11428;-72
2022/12/27 17:25:27;;;;;;;;;;;;;;;;;;2199003;59;13756;-71
2022/12/27 17:28:06;;;;;;;;;;;;;;;;;;2200268;59;15698;-72
2022/12/27 17:30:48;;;;;;;;;;;;;;;;;;2200520;59;12848;-71
2022/12/27 17:33:36;;;;;;;;;;;;;;;;;;2199543;59;19343;-71
2022/12/27 17:36:21;;;;;;;;;;;;;;;;;;2198754;59;17300;-71
2022/12/27 17:39:03;;;;;;;;;;;;;;;;;;2201323;59;14780;-71
2022/12/27 17:44:40;;;;;;;;;;;;;;;;;;2201632;64;13607;-71
2022/12/27 17:47:25;;;;;;;;;;;;;;;;;;2200340;59;20877;-71
2022/12/27 17:50:00;;;;;;;;;;;;;;;;;;2203871;67;11588;-71
2022/12/27 17:58:35;;;;;;;;;;;;;;;;;;2190049;59;12614;-71
2022/12/27 18:01:08;;;;;;;;;;;;;;;;;;2198532;64;18933;-71
2022/12/27 18:03:44;;;;;;;;;;;;;;;;;;2203418;59;13735;-71
2022/12/27 18:06:20;;;;;;;;;;;;;;;;;;2202820;67;12940;-71
2022/12/27 18:08:53;;;;;;;;;;;;;;;;;;2202345;59;12339;-71
2022/12/27 18:11:30;;;;;;;;;;;;;;;;;;2202635;59;13942;-71
2022/12/27 18:14:04;;;;;;;;;;;;;;;;;;2202754;59;12525;-71
2022/12/27 18:16:40;;;;;;;;;;;;;;;;;;2202688;59;13098;-71
2022/12/27 18:19:18;;;;;;;;;;;;;;;;;;2202320;59;11942;-71
2022/12/27 18:21:57;;;;;;;;;;;;;;;;;;2202771;59;13324;-71
2022/12/27 18:24:31;;;;;;;;;;;;;;;;;;2201829;59;12924;-71
2022/12/27 18:27:08;;;;;;;;;;;;;;;;;;2202695;59;12859;-71
2022/12/27 18:29:41;;;;;;;;;;;;;;;;;;2203316;59;12882;-71
2022/12/27 18:32:16;;;;;;;;;;;;;;;;;;2202238;59;14852;-71
2022/12/27 18:34:52;;;;;;;;;;;;;;;;;;2202534;59;12971;-71
2022/12/27 18:37:26;;;;;;;;;;;;;;;;;;2201235;59;12509;-71
2022/12/27 18:40:03;;;;;;;;;;;;;;;;;;2202246;60;12776;-71
2022/12/27 18:42:43;;;;;;;;;;;;;;;;;;2202296;59;13633;-71
2022/12/27 18:45:20;;;;;;;;;;;;;;;;;;2203136;59;12425;-71
2022/12/27 18:47:54;;;;;;;;;;;;;;;;;;2203024;67;16221;-71
2022/12/27 18:50:29;;;;;;;;;;;;;;;;;;2201128;59;13556;-71
2022/12/27 18:53:03;;;;;;;;;;;;;;;;;;2202865;64;12703;-71
2022/12/27 18:55:36;;;;;;;;;;;;;;;;;;2203095;63;12623;-71
2022/12/27 18:58:17;;;;;;;;;;;;;;;;;;2199170;59;14394;-71
2022/12/27 19:00:52;;;;;;;;;;;;;;;;;;2202778;59;12753;-71
2022/12/27 19:03:26;;;;;;;;;;;;;;;;;;2202390;59;19612;-71
2022/12/27 19:06:04;;;;;;;;;;;;;;;;;;2199606;59;13343;-71
2022/12/27 19:08:39;;;;;;;;;;;;;;;;;;2202318;59;13738;-71
2022/12/27 19:11:20;;;;;;;;;;;;;;;;;;2202572;59;12921;-71
2022/12/27 19:13:57;;;;;;;;;;;;;;;;;;2203406;59;14745;-71
2022/12/27 19:16:33;;;;;;;;;;;;;;;;;;2200357;59;16383;-71
2022/12/27 19:19:09;;;;;;;;;;;;;;;;;;2202053;59;18033;-71
2022/12/27 19:21:42;;;;;;;;;;;;;;;;;;2202471;59;12054;-71
2022/12/27 19:24:29;;;;;;;;;;;;;;;;;;2202648;59;11795;-71
2022/12/27 19:27:03;;;;;;;;;;;;;;;;;;2202892;59;11957;-71
2022/12/27 19:29:49;;;;;;;;;;;;;;;;;;2203426;59;12169;-71
2022/12/27 19:32:24;;;;;;;;;;;;;;;;;;2203139;59;13923;-71
2022/12/27 19:34:58;;;;;;;;;;;;;;;;;;2203317;59;11888;-71
2022/12/27 19:37:34;;;;;;;;;;;;;;;;;;2200542;59;12538;-71
2022/12/27 19:40:08;;;;;;;;;;;;;;;;;;2201487;59;13954;-71
2022/12/27 19:42:42;;;;;;;;;;;;;;;;;;2202251;59;12274;-71
2022/12/27 19:45:19;;;;;;;;;;;;;;;;;;2202586;67;12765;-71
2022/12/27 19:47:53;;;;;;;;;;;;;;;;;;2202669;59;14074;-71
2022/12/27 19:50:26;;;;;;;;;;;;;;;;;;2202949;63;11797;-71
2022/12/27 19:52:59;;;;;;;;;;;;;;;;;;2203139;59;12728;-71
2022/12/27 19:55:35;;;;;;;;;;;;;;;;;;2202238;64;12591;-71
2022/12/27 19:58:08;;;;;;;;;;;;;;;;;;2199439;64;12588;-71
2022/12/27 20:00:44;;;;;;;;;;;;;;;;;;2203060;63;13991;-71
2022/12/27 20:03:17;;;;;;;;;;;;;;;;;;2202098;59;15665;-71
2022/12/27 20:05:50;;;;;;;;;;;;;;;;;;2203084;59;12512;-71
2022/12/27 20:08:26;;;;;;;;;;;;;;;;;;2202191;59;12375;-71
2022/12/27 20:10:59;;;;;;;;;;;;;;;;;;2200112;59;11889;-71
2022/12/27 20:13:32;;;;;;;;;;;;;;;;;;2202003;64;13457;-71
2022/12/27 20:16:08;;;;;;;;;;;;;;;;;;2202479;59;14238;-71
2022/12/27 20:18:42;;;;;;;;;;;;;;;;;;2203170;63;12785;-71
2022/12/27 20:21:16;;;;;;;;;;;;;;;;;;2202432;59;13593;-71
2022/12/27 20:23:49;;;;;;;;;;;;;;;;;;2202727;59;13310;-71